sensor_id;sensor_type;location;lat;lon;timestamp;pressure;altitude;pressure_sealevel;temperature;humidity
37206;BME280;23099;42.636;23.198;2023-04-22T00:00:05;91671.84;;;6.97;94.76
37206;BME280;23099;42.636;23.198;2023-04-22T00:02:33;91671.59;;;7.02;94.20
37206;BME280;23099;42.636;23.198;2023-04-22T00:05:03;91677.34;;;7.04;93.39
37206;BME280;23099;42.636;23.198;2023-04-22T00:07:30;91671.31;;;7.07;93.00
37206;BME280;23099;42.636;23.198;2023-04-22T00:09:57;91681.78;;;7.00;92.07
37206;BME280;23099;42.636;23.198;2023-04-22T00:12:23;91678.63;;;6.79;91.17
37206;BME280;23099;42.636;23.198;2023-04-22T00:14:50;91683.53;;;6.77;91.71
37206;BME280;23099;42.636;23.198;2023-04-22T00:17:17;91688.66;;;6.70;92.18
37206;BME280;23099;42.636;23.198;2023-04-22T00:19:43;91686.63;;;6.63;92.77
37206;BME280;23099;42.636;23.198;2023-04-22T00:22:12;91684.03;;;6.67;92.99
37206;BME280;23099;42.636;23.198;2023-04-22T00:24:38;91690.22;;;6.71;92.93
37206;BME280;23099;42.636;23.198;2023-04-22T00:27:05;91687.31;;;6.60;91.59
37206;BME280;23099;42.636;23.198;2023-04-22T00:29:32;91684.91;;;6.55;91.49
37206;BME280;23099;42.636;23.198;2023-04-22T00:31:59;91687.72;;;6.47;91.55
37206;BME280;23099;42.636;23.198;2023-04-22T00:34:25;91679.41;;;6.32;92.13
37206;BME280;23099;42.636;23.198;2023-04-22T00:36:52;91687.38;;;6.32;92.31
37206;BME280;23099;42.636;23.198;2023-04-22T00:39:20;91696.53;;;6.35;92.20
37206;BME280;23099;42.636;23.198;2023-04-22T00:41:47;91693.09;;;6.19;91.59
37206;BME280;23099;42.636;23.198;2023-04-22T00:44:13;91695.31;;;6.17;91.62
37206;BME280;23099;42.636;23.198;2023-04-22T00:46:40;91693.25;;;6.10;91.89
37206;BME280;23099;42.636;23.198;2023-04-22T00:49:07;91696.84;;;6.02;92.10
37206;BME280;23099;42.636;23.198;2023-04-22T00:51:35;91699.28;;;5.95;92.28
37206;BME280;23099;42.636;23.198;2023-04-22T00:54:02;91701.63;;;5.84;92.36
37206;BME280;23099;42.636;23.198;2023-04-22T00:56:32;91704.59;;;5.83;92.63
37206;BME280;23099;42.636;23.198;2023-04-22T00:59:01;91697.31;;;5.80;93.05
37206;BME280;23099;42.636;23.198;2023-04-22T01:01:29;91697.66;;;5.78;93.30
37206;BME280;23099;42.636;23.198;2023-04-22T01:03:56;91703.84;;;5.82;93.25
37206;BME280;23099;42.636;23.198;2023-04-22T01:06:26;91701.09;;;5.79;92.33
37206;BME280;23099;42.636;23.198;2023-04-22T01:08:55;91700.69;;;5.64;92.21
37206;BME280;23099;42.636;23.198;2023-04-22T01:11:23;91696.84;;;5.62;93.16
37206;BME280;23099;42.636;23.198;2023-04-22T01:13:51;91694.72;;;5.67;93.49
37206;BME280;23099;42.636;23.198;2023-04-22T01:16:17;91689.84;;;5.69;93.81
37206;BME280;23099;42.636;23.198;2023-04-22T01:18:44;91688.84;;;5.74;93.44
37206;BME280;23099;42.636;23.198;2023-04-22T01:21:11;91693.50;;;5.65;92.88
37206;BME280;23099;42.636;23.198;2023-04-22T01:23:39;91700.72;;;5.52;93.13
37206;BME280;23099;42.636;23.198;2023-04-22T01:26:06;91692.44;;;5.54;93.35
37206;BME280;23099;42.636;23.198;2023-04-22T01:28:33;91690.56;;;5.54;93.80
37206;BME280;23099;42.636;23.198;2023-04-22T01:31:00;91702.50;;;5.60;93.34
37206;BME280;23099;42.636;23.198;2023-04-22T01:33:28;91690.56;;;5.54;92.70
37206;BME280;23099;42.636;23.198;2023-04-22T01:35:54;91699.41;;;5.58;93.43
37206;BME280;23099;42.636;23.198;2023-04-22T01:38:22;91692.44;;;5.54;93.35
37206;BME280;23099;42.636;23.198;2023-04-22T01:40:50;91700.44;;;5.42;92.42
37206;BME280;23099;42.636;23.198;2023-04-22T01:43:17;91692.97;;;5.31;93.31
37206;BME280;23099;42.636;23.198;2023-04-22T01:45:43;91696.47;;;5.36;93.91
37206;BME280;23099;42.636;23.198;2023-04-22T01:48:11;91693.81;;;5.36;93.16
37206;BME280;23099;42.636;23.198;2023-04-22T01:50:37;91691.75;;;5.29;92.82
37206;BME280;23099;42.636;23.198;2023-04-22T01:53:06;91688.03;;;5.06;92.54
37206;BME280;23099;42.636;23.198;2023-04-22T01:55:33;91684.84;;;5.00;94.08
37206;BME280;23099;42.636;23.198;2023-04-22T01:58:02;91687.94;;;5.02;95.06
37206;BME280;23099;42.636;23.198;2023-04-22T02:00:28;91692.22;;;5.07;95.85
37206;BME280;23099;42.636;23.198;2023-04-22T02:02:55;91687.50;;;5.00;95.12
37206;BME280;23099;42.636;23.198;2023-04-22T02:05:22;91688.38;;;4.92;95.13
37206;BME280;23099;42.636;23.198;2023-04-22T02:07:50;91691.00;;;4.92;95.81
37206;BME280;23099;42.636;23.198;2023-04-22T02:10:17;91690.16;;;4.88;95.75
37206;BME280;23099;42.636;23.198;2023-04-22T02:12:43;91685.41;;;4.81;96.20
37206;BME280;23099;42.636;23.198;2023-04-22T02:15:11;91686.19;;;4.70;96.58
37206;BME280;23099;42.636;23.198;2023-04-22T02:17:40;91688.94;;;4.73;97.24
37206;BME280;23099;42.636;23.198;2023-04-22T02:20:08;91688.06;;;4.81;97.60
37206;BME280;23099;42.636;23.198;2023-04-22T02:22:36;91680.66;;;4.87;97.19
37206;BME280;23099;42.636;23.198;2023-04-22T02:25:03;91678.47;;;4.89;96.33
37206;BME280;23099;42.636;23.198;2023-04-22T02:27:30;91677.00;;;4.79;96.93
37206;BME280;23099;42.636;23.198;2023-04-22T02:29:57;91684.75;;;4.84;97.40
37206;BME280;23099;42.636;23.198;2023-04-22T02:32:25;91682.22;;;4.88;97.74
37206;BME280;23099;42.636;23.198;2023-04-22T02:34:51;91680.00;;;4.90;98.44
37206;BME280;23099;42.636;23.198;2023-04-22T02:37:19;91683.28;;;4.99;98.55
37206;BME280;23099;42.636;23.198;2023-04-22T02:39:47;91680.09;;;4.93;96.33
37206;BME280;23099;42.636;23.198;2023-04-22T02:42:13;91685.84;;;4.83;95.12
37206;BME280;23099;42.636;23.198;2023-04-22T02:44:40;91687.16;;;4.77;96.60
37206;BME280;23099;42.636;23.198;2023-04-22T02:47:07;91700.97;;;4.83;97.55
37206;BME280;23099;42.636;23.198;2023-04-22T02:49:35;91698.09;;;4.88;98.23
37206;BME280;23099;42.636;23.198;2023-04-22T02:52:01;91698.19;;;4.91;97.74
37206;BME280;23099;42.636;23.198;2023-04-22T02:54:28;91695.66;;;4.95;98.38
37206;BME280;23099;42.636;23.198;2023-04-22T02:56:55;91701.63;;;5.04;99.01
37206;BME280;23099;42.636;23.198;2023-04-22T02:59:22;91698.50;;;5.14;98.21
37206;BME280;23099;42.636;23.198;2023-04-22T03:01:49;91704.78;;;5.22;97.75
37206;BME280;23099;42.636;23.198;2023-04-22T03:04:15;91708.13;;;5.19;96.56
37206;BME280;23099;42.636;23.198;2023-04-22T03:06:44;91703.47;;;5.16;95.03
37206;BME280;23099;42.636;23.198;2023-04-22T03:09:10;91704.59;;;5.15;95.36
37206;BME280;23099;42.636;23.198;2023-04-22T03:11:37;91702.25;;;5.13;96.14
37206;BME280;23099;42.636;23.198;2023-04-22T03:14:04;91700.72;;;5.12;96.92
37206;BME280;23099;42.636;23.198;2023-04-22T03:16:31;91703.47;;;5.16;96.98
37206;BME280;23099;42.636;23.198;2023-04-22T03:18:58;91700.81;;;5.16;97.40
37206;BME280;23099;42.636;23.198;2023-04-22T03:21:25;91706.00;;;5.12;97.16
37206;BME280;23099;42.636;23.198;2023-04-22T03:23:54;91700.59;;;5.09;97.73
37206;BME280;23099;42.636;23.198;2023-04-22T03:26:20;91706.78;;;5.13;97.51
37206;BME280;23099;42.636;23.198;2023-04-22T03:28:48;91717.28;;;5.09;96.85
37206;BME280;23099;42.636;23.198;2023-04-22T03:31:14;91716.94;;;4.98;95.46
37206;BME280;23099;42.636;23.198;2023-04-22T03:33:41;91714.75;;;4.88;95.37
37206;BME280;23099;42.636;23.198;2023-04-22T03:36:08;91723.25;;;4.82;96.00
37206;BME280;23099;42.636;23.198;2023-04-22T03:38:34;91726.13;;;4.89;96.48
37206;BME280;23099;42.636;23.198;2023-04-22T03:41:02;91728.97;;;4.96;96.69
37206;BME280;23099;42.636;23.198;2023-04-22T03:43:29;91726.22;;;4.92;97.30
37206;BME280;23099;42.636;23.198;2023-04-22T03:45:56;91723.22;;;4.94;98.01
37206;BME280;23099;42.636;23.198;2023-04-22T03:48:22;91730.19;;;4.98;99.05
37206;BME280;23099;42.636;23.198;2023-04-22T03:50:49;91730.84;;;5.08;99.34
37206;BME280;23099;42.636;23.198;2023-04-22T03:53:16;91737.25;;;5.19;99.46
37206;BME280;23099;42.636;23.198;2023-04-22T03:55:42;91738.44;;;5.21;98.48
37206;BME280;23099;42.636;23.198;2023-04-22T03:58:10;91725.19;;;5.21;97.28
37206;BME280;23099;42.636;23.198;2023-04-22T04:00:37;91738.13;;;5.23;95.97
37206;BME280;23099;42.636;23.198;2023-04-22T04:03:04;91737.25;;;5.07;96.94
37206;BME280;23099;42.636;23.198;2023-04-22T04:05:31;91730.63;;;5.01;97.55
37206;BME280;23099;42.636;23.198;2023-04-22T04:07:57;91738.56;;;5.13;98.36
37206;BME280;23099;42.636;23.198;2023-04-22T04:10:24;91750.38;;;5.15;98.80
37206;BME280;23099;42.636;23.198;2023-04-22T04:12:51;91740.78;;;5.11;98.58
37206;BME280;23099;42.636;23.198;2023-04-22T04:15:19;91753.03;;;5.03;97.25
37206;BME280;23099;42.636;23.198;2023-04-22T04:17:46;91744.31;;;5.03;98.32
37206;BME280;23099;42.636;23.198;2023-04-22T04:20:13;91750.06;;;5.05;99.03
37206;BME280;23099;42.636;23.198;2023-04-22T04:22:40;91749.06;;;5.09;99.14
37206;BME280;23099;42.636;23.198;2023-04-22T04:25:07;91750.81;;;5.17;99.11
37206;BME280;23099;42.636;23.198;2023-04-22T04:27:35;91751.81;;;5.25;98.69
37206;BME280;23099;42.636;23.198;2023-04-22T04:30:04;91755.44;;;5.20;97.75
37206;BME280;23099;42.636;23.198;2023-04-22T04:32:32;91755.91;;;5.10;98.28
37206;BME280;23099;42.636;23.198;2023-04-22T04:35:00;91754.25;;;5.18;99.12
37206;BME280;23099;42.636;23.198;2023-04-22T04:37:27;91759.75;;;5.25;99.62
37206;BME280;23099;42.636;23.198;2023-04-22T04:39:54;91759.41;;;5.26;98.66
37206;BME280;23099;42.636;23.198;2023-04-22T04:42:23;91763.41;;;5.32;98.25
37206;BME280;23099;42.636;23.198;2023-04-22T04:44:50;91758.00;;;5.29;98.02
37206;BME280;23099;42.636;23.198;2023-04-22T04:47:17;91764.38;;;5.28;98.77
37206;BME280;23099;42.636;23.198;2023-04-22T04:49:45;91761.94;;;5.35;99.46
37206;BME280;23099;42.636;23.198;2023-04-22T04:52:12;91766.25;;;5.40;99.81
37206;BME280;23099;42.636;23.198;2023-04-22T04:54:39;91773.41;;;5.51;100.00
37206;BME280;23099;42.636;23.198;2023-04-22T04:57:05;91773.75;;;5.62;99.68
37206;BME280;23099;42.636;23.198;2023-04-22T04:59:34;91776.13;;;5.67;99.38
37206;BME280;23099;42.636;23.198;2023-04-22T05:02:00;91772.06;;;5.69;99.33
37206;BME280;23099;42.636;23.198;2023-04-22T05:04:27;91769.38;;;5.82;99.73
37206;BME280;23099;42.636;23.198;2023-04-22T05:06:55;91768.59;;;5.81;99.74
37206;BME280;23099;42.636;23.198;2023-04-22T05:09:22;91768.16;;;5.79;100.00
37206;BME280;23099;42.636;23.198;2023-04-22T05:11:48;91775.00;;;5.92;100.00
37206;BME280;23099;42.636;23.198;2023-04-22T05:14:15;91770.84;;;6.07;100.00
37206;BME280;23099;42.636;23.198;2023-04-22T05:16:42;91769.34;;;6.22;100.00
37206;BME280;23099;42.636;23.198;2023-04-22T05:19:08;91774.97;;;6.32;99.94
37206;BME280;23099;42.636;23.198;2023-04-22T05:21:35;91778.00;;;6.47;98.77
37206;BME280;23099;42.636;23.198;2023-04-22T05:24:03;91776.47;;;6.61;98.01
37206;BME280;23099;42.636;23.198;2023-04-22T05:26:30;91777.94;;;6.74;97.13
37206;BME280;23099;42.636;23.198;2023-04-22T05:28:57;91776.31;;;6.86;96.92
37206;BME280;23099;42.636;23.198;2023-04-22T05:31:23;91776.91;;;6.95;96.77
37206;BME280;23099;42.636;23.198;2023-04-22T05:33:50;91783.63;;;7.04;94.06
37206;BME280;23099;42.636;23.198;2023-04-22T05:36:17;91778.13;;;7.13;93.67
37206;BME280;23099;42.636;23.198;2023-04-22T05:38:43;91778.78;;;7.26;94.29
37206;BME280;23099;42.636;23.198;2023-04-22T05:41:11;91784.88;;;7.42;94.15
37206;BME280;23099;42.636;23.198;2023-04-22T05:43:38;91782.59;;;7.60;94.07
37206;BME280;23099;42.636;23.198;2023-04-22T05:46:05;91785.25;;;7.75;94.28
37206;BME280;23099;42.636;23.198;2023-04-22T05:48:32;91785.44;;;7.86;92.74
37206;BME280;23099;42.636;23.198;2023-04-22T05:50:58;91779.22;;;7.98;92.62
37206;BME280;23099;42.636;23.198;2023-04-22T05:53:25;91786.72;;;8.11;93.10
37206;BME280;23099;42.636;23.198;2023-04-22T05:55:52;91785.69;;;8.16;92.24
37206;BME280;23099;42.636;23.198;2023-04-22T05:58:20;91781.34;;;8.27;92.14
37206;BME280;23099;42.636;23.198;2023-04-22T06:00:47;91781.66;;;8.41;92.03
37206;BME280;23099;42.636;23.198;2023-04-22T06:03:14;91785.22;;;8.49;92.26
37206;BME280;23099;42.636;23.198;2023-04-22T06:05:40;91783.47;;;8.57;92.18
37206;BME280;23099;42.636;23.198;2023-04-22T06:08:08;91781.34;;;8.66;92.01
37206;BME280;23099;42.636;23.198;2023-04-22T06:10:35;91790.59;;;8.72;92.36
37206;BME280;23099;42.636;23.198;2023-04-22T06:13:01;91783.97;;;8.85;92.51
37206;BME280;23099;42.636;23.198;2023-04-22T06:15:29;91782.66;;;8.75;88.04
37206;BME280;23099;42.636;23.198;2023-04-22T06:17:56;91787.69;;;8.80;87.88
37206;BME280;23099;42.636;23.198;2023-04-22T06:20:23;91781.38;;;8.89;88.22
37206;BME280;23099;42.636;23.198;2023-04-22T06:22:50;91786.03;;;8.95;87.71
37206;BME280;23099;42.636;23.198;2023-04-22T06:25:17;91779.81;;;9.10;87.74
37206;BME280;23099;42.636;23.198;2023-04-22T06:27:43;91778.75;;;9.15;85.55
37206;BME280;23099;42.636;23.198;2023-04-22T06:30:10;91782.72;;;9.25;86.87
37206;BME280;23099;42.636;23.198;2023-04-22T06:32:38;91779.84;;;9.33;87.06
37206;BME280;23099;42.636;23.198;2023-04-22T06:35:06;91784.63;;;9.47;84.81
37206;BME280;23099;42.636;23.198;2023-04-22T06:37:33;91780.63;;;9.60;85.65
37206;BME280;23099;42.636;23.198;2023-04-22T06:40:00;91776.53;;;9.66;84.07
37206;BME280;23099;42.636;23.198;2023-04-22T06:42:26;91777.78;;;9.76;84.28
37206;BME280;23099;42.636;23.198;2023-04-22T06:44:53;91782.50;;;9.86;83.63
37206;BME280;23099;42.636;23.198;2023-04-22T06:47:20;91784.66;;;10.03;82.53
37206;BME280;23099;42.636;23.198;2023-04-22T06:49:48;91792.06;;;10.17;81.07
37206;BME280;23099;42.636;23.198;2023-04-22T06:52:14;91786.53;;;10.29;80.40
37206;BME280;23099;42.636;23.198;2023-04-22T06:54:41;91789.47;;;10.50;79.63
37206;BME280;23099;42.636;23.198;2023-04-22T06:57:08;91788.97;;;10.75;79.11
37206;BME280;23099;42.636;23.198;2023-04-22T06:59:34;91786.84;;;10.91;78.45
37206;BME280;23099;42.636;23.198;2023-04-22T07:02:01;91789.34;;;11.14;80.45
37206;BME280;23099;42.636;23.198;2023-04-22T07:04:28;91785.28;;;11.30;81.25
37206;BME280;23099;42.636;23.198;2023-04-22T07:06:57;91787.31;;;11.44;77.00
37206;BME280;23099;42.636;23.198;2023-04-22T07:09:24;91789.00;;;11.63;76.21
37206;BME280;23099;42.636;23.198;2023-04-22T07:11:51;91790.97;;;11.73;76.00
37206;BME280;23099;42.636;23.198;2023-04-22T07:14:17;91791.06;;;11.84;75.22
37206;BME280;23099;42.636;23.198;2023-04-22T07:16:45;91790.81;;;12.03;73.43
37206;BME280;23099;42.636;23.198;2023-04-22T07:19:11;91782.88;;;12.17;74.11
37206;BME280;23099;42.636;23.198;2023-04-22T07:21:38;91784.53;;;12.43;72.60
37206;BME280;23099;42.636;23.198;2023-04-22T07:24:06;91788.47;;;12.74;72.24
37206;BME280;23099;42.636;23.198;2023-04-22T07:26:36;91782.00;;;12.89;71.12
37206;BME280;23099;42.636;23.198;2023-04-22T07:29:03;91793.88;;;12.81;69.40
37206;BME280;23099;42.636;23.198;2023-04-22T07:31:30;91798.84;;;12.79;69.88
37206;BME280;23099;42.636;23.198;2023-04-22T07:33:56;91798.56;;;13.09;71.09
37206;BME280;23099;42.636;23.198;2023-04-22T07:36:23;91795.84;;;12.98;69.85
37206;BME280;23099;42.636;23.198;2023-04-22T07:38:53;91806.94;;;13.00;68.57
37206;BME280;23099;42.636;23.198;2023-04-22T07:41:21;91799.34;;;13.17;68.48
37206;BME280;23099;42.636;23.198;2023-04-22T07:43:48;91800.91;;;13.35;66.14
37206;BME280;23099;42.636;23.198;2023-04-22T07:46:15;91800.16;;;13.49;67.81
37206;BME280;23099;42.636;23.198;2023-04-22T07:48:41;91796.31;;;13.71;65.68
37206;BME280;23099;42.636;23.198;2023-04-22T07:51:08;91801.34;;;13.84;63.90
37206;BME280;23099;42.636;23.198;2023-04-22T07:53:35;91804.38;;;13.75;65.61
37206;BME280;23099;42.636;23.198;2023-04-22T07:56:02;91796.69;;;13.88;61.74
37206;BME280;23099;42.636;23.198;2023-04-22T07:58:30;91800.50;;;14.22;64.95
37206;BME280;23099;42.636;23.198;2023-04-22T08:00:57;91794.75;;;14.27;61.00
37206;BME280;23099;42.636;23.198;2023-04-22T08:03:24;91792.44;;;14.15;61.83
37206;BME280;23099;42.636;23.198;2023-04-22T08:05:51;91792.78;;;14.35;62.30
37206;BME280;23099;42.636;23.198;2023-04-22T08:08:18;91790.47;;;14.55;59.76
37206;BME280;23099;42.636;23.198;2023-04-22T08:10:44;91788.13;;;14.67;58.32
37206;BME280;23099;42.636;23.198;2023-04-22T08:13:11;91785.31;;;14.89;56.43
37206;BME280;23099;42.636;23.198;2023-04-22T08:15:39;91788.78;;;14.93;58.57
37206;BME280;23099;42.636;23.198;2023-04-22T08:18:06;91784.41;;;15.16;55.33
37206;BME280;23099;42.636;23.198;2023-04-22T08:20:32;91791.44;;;15.00;56.79
37206;BME280;23099;42.636;23.198;2023-04-22T08:22:59;91792.75;;;14.60;56.96
37206;BME280;23099;42.636;23.198;2023-04-22T08:25:26;91794.97;;;14.82;58.96
37206;BME280;23099;42.636;23.198;2023-04-22T08:27:54;91796.41;;;15.01;55.97
37206;BME280;23099;42.636;23.198;2023-04-22T08:30:21;91797.00;;;15.34;59.00
37206;BME280;23099;42.636;23.198;2023-04-22T08:32:49;91793.13;;;15.38;56.80
37206;BME280;23099;42.636;23.198;2023-04-22T08:35:17;91792.84;;;15.22;53.08
37206;BME280;23099;42.636;23.198;2023-04-22T08:37:44;91790.03;;;15.43;53.01
37206;BME280;23099;42.636;23.198;2023-04-22T08:40:11;91790.38;;;15.45;51.77
37206;BME280;23099;42.636;23.198;2023-04-22T08:42:38;91792.78;;;15.33;53.66
37206;BME280;23099;42.636;23.198;2023-04-22T08:45:06;91784.97;;;15.49;54.29
37206;BME280;23099;42.636;23.198;2023-04-22T08:47:34;91775.31;;;15.59;53.81
37206;BME280;23099;42.636;23.198;2023-04-22T08:50:05;91774.13;;;15.67;52.77
37206;BME280;23099;42.636;23.198;2023-04-22T08:52:33;91779.84;;;15.72;55.21
37206;BME280;23099;42.636;23.198;2023-04-22T08:55:00;91761.69;;;15.80;50.77
37206;BME280;23099;42.636;23.198;2023-04-22T08:57:27;91767.69;;;15.98;52.63
37206;BME280;23099;42.636;23.198;2023-04-22T08:59:55;91779.06;;;16.16;51.77
37206;BME280;23099;42.636;23.198;2023-04-22T09:02:23;91773.53;;;16.31;50.17
37206;BME280;23099;42.636;23.198;2023-04-22T09:04:51;91767.72;;;16.36;46.77
37206;BME280;23099;42.636;23.198;2023-04-22T09:07:21;91764.28;;;16.32;47.69
37206;BME280;23099;42.636;23.198;2023-04-22T09:09:49;91751.06;;;16.44;47.12
37206;BME280;23099;42.636;23.198;2023-04-22T09:12:16;91763.53;;;16.69;48.21
37206;BME280;23099;42.636;23.198;2023-04-22T09:14:44;91756.81;;;16.80;45.39
37206;BME280;23099;42.636;23.198;2023-04-22T09:17:14;91753.31;;;16.83;46.78
37206;BME280;23099;42.636;23.198;2023-04-22T09:19:41;91755.84;;;16.98;47.11
37206;BME280;23099;42.636;23.198;2023-04-22T09:22:09;91745.88;;;17.21;43.15
37206;BME280;23099;42.636;23.198;2023-04-22T09:24:42;91745.78;;;17.28;45.05
37206;BME280;23099;42.636;23.198;2023-04-22T09:27:10;91744.38;;;17.17;45.78
37206;BME280;23099;42.636;23.198;2023-04-22T09:29:37;91745.03;;;17.28;44.28
37206;BME280;23099;42.636;23.198;2023-04-22T09:32:08;91730.38;;;17.25;42.38
37206;BME280;23099;42.636;23.198;2023-04-22T09:34:44;91729.78;;;17.41;44.60
37206;BME280;23099;42.636;23.198;2023-04-22T09:37:11;91719.66;;;17.72;42.82
37206;BME280;23099;42.636;23.198;2023-04-22T09:39:42;91722.06;;;17.90;42.70
37206;BME280;23099;42.636;23.198;2023-04-22T09:42:08;91723.47;;;17.98;38.21
37206;BME280;23099;42.636;23.198;2023-04-22T09:44:37;91718.94;;;17.91;41.44
37206;BME280;23099;42.636;23.198;2023-04-22T09:47:04;91719.94;;;17.78;42.18
37206;BME280;23099;42.636;23.198;2023-04-22T09:49:35;91722.38;;;17.72;43.29
37206;BME280;23099;42.636;23.198;2023-04-22T09:52:02;91725.22;;;17.35;42.59
37206;BME280;23099;42.636;23.198;2023-04-22T09:54:29;91725.06;;;16.91;42.17
37206;BME280;23099;42.636;23.198;2023-04-22T09:56:57;91727.72;;;16.65;40.28
37206;BME280;23099;42.636;23.198;2023-04-22T09:59:24;91724.25;;;16.64;41.16
37206;BME280;23099;42.636;23.198;2023-04-22T10:01:55;91719.31;;;16.55;40.02
37206;BME280;23099;42.636;23.198;2023-04-22T10:04:22;91714.69;;;16.56;41.11
37206;BME280;23099;42.636;23.198;2023-04-22T10:06:50;91722.66;;;16.33;42.67
37206;BME280;23099;42.636;23.198;2023-04-22T10:09:18;91710.50;;;16.17;42.26
37206;BME280;23099;42.636;23.198;2023-04-22T10:11:45;91721.38;;;16.07;38.96
37206;BME280;23099;42.636;23.198;2023-04-22T10:14:14;91714.41;;;15.72;40.18
37206;BME280;23099;42.636;23.198;2023-04-22T10:16:42;91708.28;;;15.68;40.45
37206;BME280;23099;42.636;23.198;2023-04-22T10:19:14;91708.03;;;15.48;41.80
37206;BME280;23099;42.636;23.198;2023-04-22T10:21:43;91708.16;;;15.34;43.62
37206;BME280;23099;42.636;23.198;2023-04-22T10:24:14;91710.91;;;15.27;42.69
37206;BME280;23099;42.636;23.198;2023-04-22T10:26:47;91704.81;;;15.15;41.61
37206;BME280;23099;42.636;23.198;2023-04-22T10:29:16;91703.34;;;15.59;44.35
37206;BME280;23099;42.636;23.198;2023-04-22T10:31:50;91703.84;;;16.29;45.07
37206;BME280;23099;42.636;23.198;2023-04-22T10:34:18;91699.50;;;16.73;46.54
37206;BME280;23099;42.636;23.198;2023-04-22T10:36:59;91700.28;;;17.27;43.56
37206;BME280;23099;42.636;23.198;2023-04-22T10:39:28;91698.09;;;17.69;42.83
37206;BME280;23099;42.636;23.198;2023-04-22T10:41:57;91701.53;;;18.16;43.00
37206;BME280;23099;42.636;23.198;2023-04-22T10:44:46;91693.94;;;18.07;37.73
37206;BME280;23099;42.636;23.198;2023-04-22T10:47:24;91691.56;;;17.89;40.32
37206;BME280;23099;42.636;23.198;2023-04-22T10:49:51;91694.47;;;17.52;41.41
37206;BME280;23099;42.636;23.198;2023-04-22T10:52:26;91694.16;;;17.46;40.26
37206;BME280;23099;42.636;23.198;2023-04-22T10:54:56;91680.19;;;17.28;40.69
37206;BME280;23099;42.636;23.198;2023-04-22T10:57:32;91672.81;;;17.05;40.60
37206;BME280;23099;42.636;23.198;2023-04-22T11:00:21;91685.06;;;17.37;43.17
37206;BME280;23099;42.636;23.198;2023-04-22T11:02:51;91675.44;;;18.06;40.26
37206;BME280;23099;42.636;23.198;2023-04-22T11:05:20;91683.25;;;18.63;39.36
37206;BME280;23099;42.636;23.198;2023-04-22T11:07:48;91682.34;;;18.89;37.94
37206;BME280;23099;42.636;23.198;2023-04-22T11:10:33;91680.88;;;18.65;35.59
37206;BME280;23099;42.636;23.198;2023-04-22T11:13:01;91675.69;;;18.74;37.58
37206;BME280;23099;42.636;23.198;2023-04-22T11:15:29;91688.38;;;18.57;38.65
37206;BME280;23099;42.636;23.198;2023-04-22T11:17:56;91680.66;;;18.16;37.25
37206;BME280;23099;42.636;23.198;2023-04-22T11:20:23;91689.06;;;18.61;37.57
37206;BME280;23099;42.636;23.198;2023-04-22T11:22:51;91687.41;;;18.87;36.90
37206;BME280;23099;42.636;23.198;2023-04-22T11:25:18;91688.28;;;18.21;38.31
37206;BME280;23099;42.636;23.198;2023-04-22T11:27:46;91683.84;;;18.90;36.94
37206;BME280;23099;42.636;23.198;2023-04-22T11:30:15;91681.69;;;19.54;36.02
37206;BME280;23099;42.636;23.198;2023-04-22T11:32:45;91669.03;;;19.63;35.82
37206;BME280;23099;42.636;23.198;2023-04-22T11:35:14;91687.44;;;19.72;35.43
37206;BME280;23099;42.636;23.198;2023-04-22T11:37:42;91703.44;;;19.50;36.79
37206;BME280;23099;42.636;23.198;2023-04-22T11:40:10;91707.19;;;19.20;34.15
37206;BME280;23099;42.636;23.198;2023-04-22T11:42:38;91683.78;;;18.94;35.23
37206;BME280;23099;42.636;23.198;2023-04-22T11:45:06;91682.13;;;19.16;36.12
37206;BME280;23099;42.636;23.198;2023-04-22T11:47:34;91678.69;;;19.32;37.06
37206;BME280;23099;42.636;23.198;2023-04-22T11:50:04;91684.09;;;18.60;37.34
37206;BME280;23099;42.636;23.198;2023-04-22T11:52:45;91701.53;;;18.16;37.65
37206;BME280;23099;42.636;23.198;2023-04-22T11:55:12;91713.25;;;18.09;38.33
37206;BME280;23099;42.636;23.198;2023-04-22T11:57:39;91705.75;;;17.74;40.05
37206;BME280;23099;42.636;23.198;2023-04-22T12:00:09;91734.25;;;17.51;42.32
37206;BME280;23099;42.636;23.198;2023-04-22T12:02:40;91727.34;;;17.97;40.90
37206;BME280;23099;42.636;23.198;2023-04-22T12:05:11;91713.59;;;18.11;41.24
37206;BME280;23099;42.636;23.198;2023-04-22T12:07:38;91680.72;;;18.13;42.40
37206;BME280;23099;42.636;23.198;2023-04-22T12:10:06;91727.41;;;18.60;39.36
37206;BME280;23099;42.636;23.198;2023-04-22T12:12:33;91725.31;;;18.67;39.78
37206;BME280;23099;42.636;23.198;2023-04-22T12:15:11;91696.44;;;18.81;40.09
37206;BME280;23099;42.636;23.198;2023-04-22T12:17:39;91730.31;;;19.25;39.63
37206;BME280;23099;42.636;23.198;2023-04-22T12:20:11;91713.72;;;18.87;40.95
37206;BME280;23099;42.636;23.198;2023-04-22T12:22:38;91714.66;;;18.96;41.03
37206;BME280;23099;42.636;23.198;2023-04-22T12:25:05;91737.22;;;19.10;41.19
37206;BME280;23099;42.636;23.198;2023-04-22T12:27:32;91730.78;;;18.64;42.17
37206;BME280;23099;42.636;23.198;2023-04-22T12:30:01;91711.47;;;18.42;42.88
37206;BME280;23099;42.636;23.198;2023-04-22T12:32:28;91692.25;;;18.17;42.76
37206;BME280;23099;42.636;23.198;2023-04-22T12:34:55;91735.69;;;18.29;43.88
37206;BME280;23099;42.636;23.198;2023-04-22T12:37:23;91735.84;;;18.19;42.45
37206;BME280;23099;42.636;23.198;2023-04-22T12:39:51;91722.00;;;18.36;42.58
37206;BME280;23099;42.636;23.198;2023-04-22T12:42:17;91731.66;;;18.37;42.43
37206;BME280;23099;42.636;23.198;2023-04-22T12:44:44;91731.19;;;17.99;43.87
37206;BME280;23099;42.636;23.198;2023-04-22T12:47:11;91730.41;;;17.99;42.57
37206;BME280;23099;42.636;23.198;2023-04-22T12:49:38;91718.53;;;18.16;43.28
37206;BME280;23099;42.636;23.198;2023-04-22T12:52:05;91701.19;;;17.90;43.57
37206;BME280;23099;42.636;23.198;2023-04-22T12:54:33;91723.44;;;17.51;42.72
37206;BME280;23099;42.636;23.198;2023-04-22T12:57:00;91678.56;;;17.57;41.22